createdAt,value
2018-12-14T00:00:54.494Z,95262.27
2018-12-14T00:03:22.909Z,95267.22
2018-12-14T00:05:51.295Z,95264.44
2018-12-14T00:08:19.878Z,95260.68
2018-12-14T00:10:48.258Z,95264.60
2018-12-14T00:13:16.656Z,95263.77
2018-12-14T00:15:45.034Z,95262.05
2018-12-14T00:18:13.420Z,95271.36
2018-12-14T00:20:41.854Z,95269.73
2018-12-14T00:23:10.259Z,95268.66
2018-12-14T00:25:38.635Z,95263.16
2018-12-14T00:28:07.052Z,95263.02
2018-12-14T00:30:35.433Z,95264.52
2018-12-14T00:33:03.821Z,95267.73
2018-12-14T00:35:32.325Z,95267.13
2018-12-14T00:38:00.736Z,95269.47
2018-12-14T00:40:29.112Z,95268.58
2018-12-14T00:42:57.521Z,95273.16
2018-12-14T00:45:25.905Z,95273.30
2018-12-14T00:47:54.312Z,95274.57
2018-12-14T00:50:22.712Z,95278.05
2018-12-14T00:52:51.113Z,95279.99
2018-12-14T00:55:19.484Z,95279.91
2018-12-14T00:57:47.871Z,95279.23
2018-12-14T01:00:16.264Z,95284.35
2018-12-14T01:02:44.677Z,95279.55
2018-12-14T01:05:13.076Z,95288.45
2018-12-14T01:07:41.466Z,95284.08
2018-12-14T01:10:10.001Z,95290.19
2018-12-14T01:12:38.513Z,95285.59
2018-12-14T01:15:07.345Z,95290.67
2018-12-14T01:17:35.714Z,95290.36
2018-12-14T01:20:04.749Z,95293.14
2018-12-14T01:22:33.144Z,95295.78
2018-12-14T01:25:01.544Z,95287.75
2018-12-14T01:27:29.940Z,95296.98
2018-12-14T01:29:58.388Z,95290.44
2018-12-14T01:32:26.788Z,95298.27
2018-12-14T01:34:55.213Z,95297.36
2018-12-14T01:37:23.585Z,95300.36
2018-12-14T01:39:51.985Z,95302.30
2018-12-14T01:42:20.393Z,95302.48
2018-12-14T01:44:48.808Z,95302.82
2018-12-14T01:47:17.192Z,95305.46
2018-12-14T01:49:45.597Z,95308.66
2018-12-14T01:52:13.985Z,95312.53
2018-12-14T01:54:42.462Z,95306.22
2018-12-14T01:57:10.901Z,95306.34
2018-12-14T01:59:39.325Z,95303.73
2018-12-14T02:02:07.713Z,95306.53
2018-12-14T02:04:36.115Z,95302.86
2018-12-14T02:07:04.545Z,95307.77
2018-12-14T02:09:32.949Z,95298.97
2018-12-14T02:12:01.412Z,95301.20
2018-12-14T02:14:29.913Z,95295.33
2018-12-14T02:16:58.333Z,95291.02
2018-12-14T02:19:26.750Z,95292.87
2018-12-14T02:21:55.272Z,95289.47
2018-12-14T02:24:23.736Z,95289.24
2018-12-14T02:26:52.132Z,95291.18
2018-12-14T02:29:20.522Z,95283.11
2018-12-14T02:31:48.932Z,95287.05
2018-12-14T02:34:17.417Z,95284.17
2018-12-14T02:36:45.824Z,95280.32
2018-12-14T02:39:14.210Z,95279.48
2018-12-14T02:41:42.642Z,95286.05
2018-12-14T02:44:11.036Z,95285.59
2018-12-14T02:46:39.429Z,95282.19
2018-12-14T02:49:07.824Z,95288.31
2018-12-14T02:51:36.228Z,95289.62
2018-12-14T02:54:04.740Z,95290.31
2018-12-14T02:56:33.176Z,95294.91
2018-12-14T02:59:01.579Z,95295.02
2018-12-14T03:01:29.993Z,95299.70
2018-12-14T03:03:58.409Z,95297.75
2018-12-14T03:06:26.836Z,95304.38
2018-12-14T03:08:55.253Z,95304.09
2018-12-14T03:11:23.656Z,95292.53
2018-12-14T03:13:52.076Z,95298.44
2018-12-14T03:16:20.482Z,95292.08
2018-12-14T03:18:48.917Z,95287.84
2018-12-14T03:21:17.325Z,95289.64
2018-12-14T03:23:45.738Z,95293.92
2018-12-14T03:26:14.252Z,95301.16
2018-12-14T03:28:42.661Z,95296.88
2018-12-14T03:31:11.049Z,95294.42
2018-12-14T03:33:39.537Z,95302.98
2018-12-14T03:36:07.935Z,95298.81
2018-12-14T03:38:36.351Z,95307.08
2018-12-14T03:41:04.762Z,95308.00
2018-12-14T03:43:33.168Z,95314.10
2018-12-14T03:46:01.558Z,95320.34
2018-12-14T03:48:29.992Z,95313.79
2018-12-14T03:50:58.976Z,95310.16
2018-12-14T03:53:27.387Z,95312.67
2018-12-14T03:55:55.782Z,95316.72
2018-12-14T03:58:24.198Z,95317.05
2018-12-14T04:00:52.700Z,95315.28
2018-12-14T04:03:21.076Z,95324.39
2018-12-14T04:05:49.585Z,95321.80
2018-12-14T04:08:17.953Z,95331.30
2018-12-14T04:10:46.385Z,95325.83
2018-12-14T04:13:15.052Z,95326.97
2018-12-14T04:15:44.600Z,95317.29
2018-12-14T04:18:13.200Z,95326.55
2018-12-14T04:20:41.627Z,95325.12
2018-12-14T04:23:10.011Z,95323.27
2018-12-14T04:25:38.425Z,95321.55
2018-12-14T04:28:06.816Z,95333.18
2018-12-14T04:30:35.223Z,95331.46
2018-12-14T04:33:03.650Z,95330.29
2018-12-14T04:35:32.247Z,95338.30
2018-12-14T04:38:00.672Z,95332.24
2018-12-14T04:40:29.073Z,95339.97
2018-12-14T04:42:57.462Z,95343.17
2018-12-14T04:45:25.870Z,95346.89
2018-12-14T04:47:54.265Z,95347.75
2018-12-14T04:50:22.685Z,95346.16
2018-12-14T04:52:51.064Z,95345.20
2018-12-14T04:55:19.469Z,95349.50
2018-12-14T04:57:47.850Z,95359.27
2018-12-14T05:00:16.247Z,95350.00
2018-12-14T05:02:44.644Z,95357.80
2018-12-14T05:05:13.029Z,95362.67
2018-12-14T05:07:41.441Z,95361.95
2018-12-14T05:10:10.058Z,95365.79
2018-12-14T05:12:38.462Z,95362.80
2018-12-14T05:15:07.681Z,95364.61
2018-12-14T05:17:36.265Z,95366.41
2018-12-14T05:20:04.950Z,95365.41
2018-12-14T05:22:33.357Z,95363.67
2018-12-14T05:25:01.742Z,95366.18
2018-12-14T05:27:30.150Z,95372.18
2018-12-14T05:29:58.845Z,95371.91
2018-12-14T05:32:27.252Z,95369.59
2018-12-14T05:34:55.620Z,95371.76
2018-12-14T05:37:24.012Z,95374.91
2018-12-14T05:39:52.393Z,95375.83
2018-12-14T05:42:20.798Z,95377.50
2018-12-14T05:44:49.181Z,95384.02
2018-12-14T05:47:17.707Z,95379.18
2018-12-14T05:49:46.085Z,95384.58
2018-12-14T05:52:14.613Z,95375.42
2018-12-14T05:54:42.999Z,95387.39
2018-12-14T05:57:11.678Z,95387.41
2018-12-14T05:59:40.085Z,95396.64
2018-12-14T06:02:08.478Z,95394.05
2018-12-14T06:04:36.881Z,95401.07
2018-12-14T06:07:05.256Z,95393.91
2018-12-14T06:09:33.679Z,95387.77
2018-12-14T06:12:02.765Z,95387.77
2018-12-14T06:14:31.169Z,95388.94
2018-12-14T06:16:59.664Z,95389.70
2018-12-14T06:19:28.056Z,95392.38
2018-12-14T06:21:56.530Z,95391.41
2018-12-14T06:24:24.949Z,95393.61
2018-12-14T06:26:53.336Z,95404.64
2018-12-14T06:29:21.752Z,95406.77
2018-12-14T06:31:50.124Z,95409.37
2018-12-14T06:34:18.521Z,95411.29
2018-12-14T06:36:46.919Z,95406.23
2018-12-14T06:39:15.502Z,95406.84
2018-12-14T06:41:44.199Z,95409.52
2018-12-14T06:44:12.623Z,95409.88
2018-12-14T06:46:41.047Z,95401.80
2018-12-14T06:49:09.451Z,95400.66
2018-12-14T06:51:37.869Z,95398.93
2018-12-14T06:54:06.292Z,95397.33
2018-12-14T06:56:34.681Z,95397.92
2018-12-14T06:59:03.152Z,95402.06
2018-12-14T07:01:31.644Z,95398.70
2018-12-14T07:04:00.054Z,95407.78
2018-12-14T07:06:28.444Z,95412.53
2018-12-14T07:08:56.849Z,95410.91
2018-12-14T07:11:25.265Z,95418.27
2018-12-14T07:13:53.675Z,95413.42
2018-12-14T07:16:22.056Z,95409.88
2018-12-14T07:18:50.481Z,95413.45
2018-12-14T07:21:18.888Z,95418.76
2018-12-14T07:23:47.282Z,95416.75
2018-12-14T07:26:15.688Z,95414.92
2018-12-14T07:28:44.078Z,95419.77
2018-12-14T07:31:12.514Z,95429.81
2018-12-14T07:33:41.034Z,95426.72
2018-12-14T07:36:09.445Z,95423.92
2018-12-14T07:38:37.864Z,95427.17
2018-12-14T07:41:06.248Z,95429.93
2018-12-14T07:43:34.655Z,95433.36
2018-12-14T07:46:03.163Z,95434.33
2018-12-14T07:48:31.562Z,95434.12
2018-12-14T07:51:00.328Z,95436.80
2018-12-14T07:53:28.712Z,95442.20
2018-12-14T07:55:57.149Z,95446.96
2018-12-14T07:58:25.561Z,95449.80
2018-12-14T08:00:53.985Z,95451.45
2018-12-14T08:03:22.375Z,95455.77
2018-12-14T08:05:50.762Z,95451.16
2018-12-14T08:08:19.212Z,95450.88
2018-12-14T08:10:47.595Z,95462.00
2018-12-14T08:13:15.983Z,95463.44
2018-12-14T08:15:44.449Z,95461.76
2018-12-14T08:18:12.876Z,95464.69
2018-12-14T08:20:41.285Z,95463.04
2018-12-14T08:23:09.716Z,95469.28
2018-12-14T08:25:38.112Z,95472.32
2018-12-14T08:28:06.500Z,95477.00
2018-12-14T08:30:34.896Z,95473.80
2018-12-14T08:33:03.271Z,95470.19
2018-12-14T08:35:31.727Z,95475.94
2018-12-14T08:38:00.148Z,95474.22
2018-12-14T08:40:28.533Z,95480.86
2018-12-14T08:42:56.968Z,95478.58
2018-12-14T08:45:25.339Z,95486.15
2018-12-14T08:47:53.977Z,95492.63
2018-12-14T08:50:22.355Z,95487.64
2018-12-14T08:52:50.727Z,95487.39
2018-12-14T08:55:19.173Z,95495.47
2018-12-14T08:57:47.557Z,95497.63
2018-12-14T09:00:15.954Z,95500.95
2018-12-14T09:02:44.356Z,95508.31
2018-12-14T09:05:12.751Z,95505.83
2018-12-14T09:07:41.177Z,95510.27
2018-12-14T09:10:09.716Z,95510.19
2018-12-14T09:12:38.121Z,95501.35
2018-12-14T09:15:06.757Z,95511.23
2018-12-14T09:17:35.148Z,95516.11
2018-12-14T09:20:03.710Z,95514.16
2018-12-14T09:22:32.112Z,95514.75
2018-12-14T09:25:00.497Z,95508.42
2018-12-14T09:27:28.899Z,95514.75
2018-12-14T09:29:57.283Z,95516.39
2018-12-14T09:32:25.701Z,95520.83
2018-12-14T09:34:54.252Z,95521.75
2018-12-14T09:37:22.657Z,95529.64
2018-12-14T09:39:51.089Z,95530.30
2018-12-14T09:42:19.501Z,95534.80
2018-12-14T09:44:47.900Z,95530.53
2018-12-14T09:47:16.309Z,95530.05
2018-12-14T09:49:44.698Z,95525.69
2018-12-14T09:52:13.110Z,95527.78
2018-12-14T09:54:41.498Z,95529.97
2018-12-14T09:57:10.043Z,95525.73
2018-12-14T09:59:38.430Z,95526.30
2018-12-14T10:02:06.974Z,95527.67
2018-12-14T10:04:35.359Z,95528.95
2018-12-14T10:07:03.798Z,95526.34
2018-12-14T10:09:32.208Z,95532.30
2018-12-14T10:12:00.615Z,95529.91
2018-12-14T10:14:29.003Z,95519.90
2018-12-14T10:16:57.421Z,95527.47
2018-12-14T10:19:25.806Z,95528.50
2018-12-14T10:21:54.308Z,95532.19
2018-12-14T10:24:22.716Z,95535.63
2018-12-14T10:26:51.101Z,95535.07
2018-12-14T10:29:19.513Z,95531.55
2018-12-14T10:31:47.896Z,95532.14
2018-12-14T10:34:16.299Z,95540.68
2018-12-14T10:36:44.721Z,95534.41
2018-12-14T10:39:13.133Z,95537.50
2018-12-14T10:41:41.506Z,95539.55
2018-12-14T10:44:09.925Z,95532.69
2018-12-14T10:46:38.324Z,95537.14
2018-12-14T10:49:06.828Z,95539.39
2018-12-14T10:51:35.489Z,95533.48
2018-12-14T10:54:03.922Z,95539.11
2018-12-14T10:56:32.299Z,95541.28
2018-12-14T10:59:00.746Z,95547.41
2018-12-14T11:01:34.601Z,95548.00
2018-12-14T11:04:03.014Z,95545.73
2018-12-14T11:06:31.394Z,95544.95
2018-12-14T11:08:59.801Z,95547.10
2018-12-14T11:11:28.192Z,95551.19
2018-12-14T11:13:56.621Z,95550.04
2018-12-14T11:16:25.000Z,95546.78
2018-12-14T11:18:53.413Z,95538.92
2018-12-14T11:21:21.833Z,95549.67
2018-12-14T11:23:50.250Z,95545.20
2018-12-14T11:26:18.658Z,95541.08
2018-12-14T11:28:47.045Z,95545.03
2018-12-14T11:31:15.456Z,95548.13
2018-12-14T11:33:43.856Z,95547.72
2018-12-14T11:36:12.317Z,95547.39
2018-12-14T11:38:40.705Z,95549.96
2018-12-14T11:41:09.152Z,95550.94
2018-12-14T11:43:37.558Z,95541.89
2018-12-14T11:46:05.957Z,95538.85
2018-12-14T11:48:34.356Z,95538.56
2018-12-14T11:51:02.785Z,95543.22
2018-12-14T11:53:31.186Z,95545.36
2018-12-14T11:55:59.625Z,95539.55
2018-12-14T11:58:28.044Z,95538.64
2018-12-14T12:00:56.464Z,95535.27
2018-12-14T12:03:24.950Z,95531.56
2018-12-14T12:05:53.381Z,95534.50
2018-12-14T12:08:21.794Z,95528.05
2018-12-14T12:10:50.188Z,95531.18
2018-12-14T12:13:18.605Z,95529.71
2018-12-14T12:15:46.984Z,95529.25
2018-12-14T12:18:15.396Z,95539.88
2018-12-14T12:20:43.817Z,95540.81
2018-12-14T12:23:12.240Z,95543.13
2018-12-14T12:25:40.653Z,95538.62
2018-12-14T12:28:09.080Z,95535.79
2018-12-14T12:30:37.500Z,95537.78
2018-12-14T12:33:05.906Z,95534.78
2018-12-14T12:35:34.335Z,95533.36
2018-12-14T12:38:02.725Z,95537.33
2018-12-14T12:40:31.129Z,95530.12
2018-12-14T12:42:59.521Z,95533.53
2018-12-14T12:45:27.933Z,95526.59
2018-12-14T12:47:56.518Z,95537.17
2018-12-14T12:50:24.987Z,95535.16
2018-12-14T12:52:53.376Z,95533.38
2018-12-14T12:55:21.780Z,95532.64
2018-12-14T12:57:50.300Z,95531.23
2018-12-14T13:00:18.719Z,95522.09
2018-12-14T13:02:47.126Z,95524.41
2018-12-14T13:05:15.539Z,95525.38
2018-12-14T13:07:44.053Z,95525.68
2018-12-14T13:10:12.625Z,95527.60
2018-12-14T13:12:41.020Z,95531.44
2018-12-14T13:15:09.593Z,95533.80
2018-12-14T13:17:38.166Z,95532.69
2018-12-14T13:20:06.677Z,95531.17
2018-12-14T13:22:35.087Z,95534.30
2018-12-14T13:25:03.630Z,95536.02
2018-12-14T13:27:32.064Z,95538.13
2018-12-14T13:30:00.551Z,95542.52
2018-12-14T13:32:28.944Z,95548.15
2018-12-14T13:34:57.357Z,95551.10
2018-12-14T13:37:25.782Z,95549.63
2018-12-14T13:39:54.217Z,95553.73
2018-12-14T13:42:22.649Z,95558.46
2018-12-14T13:44:51.396Z,95559.34
2018-12-14T13:47:19.947Z,95562.05
2018-12-14T13:49:48.376Z,95562.42
2018-12-14T13:52:16.792Z,95562.98
2018-12-14T13:54:45.190Z,95566.58
2018-12-14T13:57:13.651Z,95569.73
2018-12-14T13:59:42.151Z,95577.02
2018-12-14T14:02:10.557Z,95577.98
2018-12-14T14:04:38.980Z,95577.78
2018-12-14T14:07:07.384Z,95574.27
2018-12-14T14:09:35.807Z,95576.78
2018-12-14T14:12:04.333Z,95579.72
2018-12-14T14:14:32.792Z,95581.96
2018-12-14T14:17:01.326Z,95589.05
2018-12-14T14:19:29.975Z,95589.89
2018-12-14T14:21:58.381Z,95593.28
2018-12-14T14:24:26.804Z,95592.77
2018-12-14T14:26:55.213Z,95597.38
2018-12-14T14:29:23.662Z,95597.70
2018-12-14T14:31:52.077Z,95601.86
2018-12-14T14:34:20.493Z,95602.48
2018-12-14T14:36:48.921Z,95609.25
2018-12-14T14:39:17.304Z,95615.88
2018-12-14T14:41:45.728Z,95615.55
2018-12-14T14:44:14.152Z,95618.87
2018-12-14T14:46:42.589Z,95622.45
2018-12-14T14:49:11.001Z,95621.36
2018-12-14T14:51:40.040Z,95618.59
2018-12-14T14:54:08.425Z,95615.23
2018-12-14T14:56:36.849Z,95615.74
2018-12-14T14:59:05.271Z,95619.30
2018-12-14T15:01:33.682Z,95617.22
2018-12-14T15:04:02.305Z,95621.77
2018-12-14T15:06:30.724Z,95628.35
2018-12-14T15:08:59.364Z,95630.33
2018-12-14T15:11:27.904Z,95634.86
2018-12-14T15:13:56.469Z,95634.29
2018-12-14T15:16:24.893Z,95639.48
2018-12-14T15:18:53.308Z,95637.22
2018-12-14T15:21:21.737Z,95637.94
2018-12-14T15:23:50.283Z,95645.73
2018-12-14T15:26:18.969Z,95643.50
2018-12-14T15:28:47.433Z,95644.52
2018-12-14T15:31:16.267Z,95648.44
2018-12-14T15:33:44.795Z,95651.69
2018-12-14T15:36:13.466Z,95655.57
2018-12-14T15:38:42.553Z,95661.27
2018-12-14T15:41:11.021Z,95663.39
2018-12-14T15:43:39.469Z,95666.09
2018-12-14T15:46:08.528Z,95676.03
2018-12-14T15:48:37.028Z,95668.98
2018-12-14T15:51:05.478Z,95673.41
2018-12-14T15:53:33.891Z,95671.31
2018-12-14T15:56:02.288Z,95678.72
2018-12-14T15:58:30.740Z,95677.38
2018-12-14T16:00:59.168Z,95673.63
2018-12-14T16:03:27.547Z,95676.00
2018-12-14T16:05:56.080Z,95682.39
2018-12-14T16:08:24.489Z,95687.52
2018-12-14T16:10:52.929Z,95686.81
2018-12-14T16:13:21.425Z,95691.02
2018-12-14T16:15:49.919Z,95692.27
2018-12-14T16:18:18.535Z,95699.80
2018-12-14T16:20:47.117Z,95692.05
2018-12-14T16:23:15.521Z,95700.42
2018-12-14T16:25:43.962Z,95693.66
2018-12-14T16:28:12.479Z,95707.55
2018-12-14T16:30:40.941Z,95697.23
2018-12-14T16:33:09.390Z,95707.91
2018-12-14T16:35:37.845Z,95702.94
2018-12-14T16:38:06.256Z,95703.84
2018-12-14T16:40:34.786Z,95710.17
2018-12-14T16:43:03.184Z,95706.52
2018-12-14T16:45:31.655Z,95713.17
2018-12-14T16:48:00.522Z,95709.34
2018-12-14T16:50:29.033Z,95708.64
2018-12-14T16:52:57.605Z,95712.66
2018-12-14T16:55:26.041Z,95712.37
2018-12-14T16:57:54.471Z,95716.20
2018-12-14T17:00:23.356Z,95720.62
2018-12-14T17:02:51.804Z,95720.55
2018-12-14T17:05:20.245Z,95726.00
2018-12-14T17:07:48.684Z,95726.45
2018-12-14T17:10:17.401Z,95727.21
2018-12-14T17:12:46.041Z,95734.64
2018-12-14T17:15:14.520Z,95733.61
2018-12-14T17:17:42.945Z,95738.58
2018-12-14T17:20:11.421Z,95739.48
2018-12-14T17:22:39.877Z,95743.85
2018-12-14T17:25:08.560Z,95748.00
2018-12-14T17:27:37.030Z,95746.31
2018-12-14T17:30:06.524Z,95741.37
2018-12-14T17:32:34.965Z,95748.25
2018-12-14T17:35:03.488Z,95749.04
2018-12-14T17:37:31.965Z,95752.70
2018-12-14T17:40:00.387Z,95754.45
2018-12-14T17:42:28.837Z,95758.55
2018-12-14T17:44:57.222Z,95761.30
2018-12-14T17:47:25.604Z,95758.03
2018-12-14T17:49:54.116Z,95762.91
2018-12-14T17:52:22.529Z,95759.06
2018-12-14T17:54:50.957Z,95762.61
2018-12-14T17:57:19.362Z,95762.54
2018-12-14T17:59:47.787Z,95763.23
2018-12-14T18:02:16.224Z,95770.11
2018-12-14T18:04:44.624Z,95771.91
2018-12-14T18:07:13.021Z,95771.06
2018-12-14T18:09:41.460Z,95771.98
2018-12-14T18:12:10.040Z,95772.09
2018-12-14T18:14:38.505Z,95767.88
2018-12-14T18:17:06.933Z,95767.77
2018-12-14T18:19:35.344Z,95767.62
2018-12-14T18:22:03.753Z,95777.86
2018-12-14T18:24:32.150Z,95773.84
2018-12-14T18:27:00.565Z,95780.75
2018-12-14T18:29:29.121Z,95774.09
2018-12-14T18:31:57.547Z,95779.66
2018-12-14T18:34:25.970Z,95781.23
2018-12-14T18:36:54.398Z,95786.71
2018-12-14T18:39:22.829Z,95783.09
2018-12-14T18:41:51.251Z,95786.16
2018-12-14T18:44:19.683Z,95784.47
2018-12-14T18:46:48.466Z,95790.00
2018-12-14T18:49:16.846Z,95787.70
2018-12-14T18:51:45.260Z,95783.60
2018-12-14T18:54:13.672Z,95785.33
2018-12-14T18:56:42.109Z,95792.09
2018-12-14T18:59:10.709Z,95794.66
2018-12-14T19:01:39.240Z,95800.64
2018-12-14T19:04:07.676Z,95794.92
2018-12-14T19:06:36.109Z,95801.23
2018-12-14T19:09:06.456Z,95797.66
2018-12-14T19:11:34.869Z,95800.80
2018-12-14T19:14:03.305Z,95807.27
2018-12-14T19:16:31.709Z,95805.91
2018-12-14T19:19:00.084Z,95805.92
2018-12-14T19:21:28.520Z,95813.77
2018-12-14T19:23:57.524Z,95814.03
2018-12-14T19:26:25.951Z,95823.76
2018-12-14T19:28:54.377Z,95828.00
2018-12-14T19:31:22.926Z,95831.40
2018-12-14T19:33:51.335Z,95833.11
2018-12-14T19:36:19.809Z,95839.71
2018-12-14T19:38:48.201Z,95837.22
2018-12-14T19:41:16.679Z,95843.84
2018-12-14T19:43:45.092Z,95850.02
2018-12-14T19:46:13.474Z,95850.28
2018-12-14T19:48:41.888Z,95852.33
2018-12-14T19:51:10.276Z,95848.72
2018-12-14T19:53:38.670Z,95854.17
2018-12-14T19:56:07.076Z,95861.36
2018-12-14T19:58:35.504Z,95858.95
2018-12-14T20:01:03.917Z,95865.03
2018-12-14T20:03:32.344Z,95867.43
2018-12-14T20:06:00.728Z,95862.91
2018-12-14T20:08:29.141Z,95870.16
2018-12-14T20:10:57.535Z,95867.26
2018-12-14T20:13:25.951Z,95872.34
2018-12-14T20:15:57.597Z,95871.47
2018-12-14T20:18:24.789Z,95875.89
2018-12-14T20:20:53.250Z,95873.23
2018-12-14T20:23:21.641Z,95875.30
2018-12-14T20:25:50.048Z,95870.00
2018-12-14T20:28:18.432Z,95873.37
2018-12-14T20:30:46.850Z,95875.61
2018-12-14T20:33:15.354Z,95876.60
2018-12-14T20:35:43.728Z,95882.95
2018-12-14T20:38:12.376Z,95887.01
2018-12-14T20:40:40.760Z,95887.20
2018-12-14T20:43:09.188Z,95891.41
2018-12-14T20:45:37.577Z,95894.13
2018-12-14T20:48:06.043Z,95895.81
2018-12-14T20:50:34.462Z,95895.52
2018-12-14T20:53:02.866Z,95894.08
2018-12-14T20:55:31.250Z,95892.30
2018-12-14T20:57:59.674Z,95892.81
2018-12-14T21:00:28.068Z,95896.81
2018-12-14T21:02:56.472Z,95896.55
2018-12-14T21:05:24.854Z,95903.52
2018-12-14T21:07:53.296Z,95909.99
2018-12-14T21:10:21.681Z,95910.47
2018-12-14T21:12:50.093Z,95915.46
2018-12-14T21:15:18.511Z,95914.16
2018-12-14T21:17:46.939Z,95904.96
2018-12-14T21:20:15.327Z,95911.69
2018-12-14T21:22:43.732Z,95910.14
2018-12-14T21:25:12.145Z,95914.33
2018-12-14T21:27:40.526Z,95914.46
2018-12-14T21:30:10.092Z,95910.63
2018-12-14T21:32:38.477Z,95909.91
2018-12-14T21:35:07.139Z,95910.48
2018-12-14T21:37:35.648Z,95902.79
2018-12-14T21:40:04.496Z,95905.66
2018-12-14T21:42:34.277Z,95900.73
2018-12-14T21:45:02.870Z,95912.95
2018-12-14T21:47:31.276Z,95919.79
2018-12-14T21:49:59.653Z,95920.48
2018-12-14T21:52:28.098Z,95919.35
2018-12-14T21:54:56.480Z,95912.81
2018-12-14T21:57:24.925Z,95912.72
2018-12-14T21:59:53.340Z,95912.94
2018-12-14T22:02:21.784Z,95916.53
2018-12-14T22:04:50.347Z,95915.44
2018-12-14T22:07:18.731Z,95915.06
2018-12-14T22:09:48.319Z,95909.56
2018-12-14T22:12:16.937Z,95908.72
2018-12-14T22:14:45.337Z,95902.03
2018-12-14T22:17:13.756Z,95900.81
2018-12-14T22:19:42.168Z,95899.86
2018-12-14T22:22:10.576Z,95900.89
2018-12-14T22:24:39.005Z,95903.98
2018-12-14T22:27:07.489Z,95908.52
2018-12-14T22:29:35.892Z,95907.77
2018-12-14T22:32:04.290Z,95912.16
2018-12-14T22:34:32.700Z,95918.14
2018-12-14T22:37:01.079Z,95917.88
2018-12-14T22:39:29.789Z,95908.80
2018-12-14T22:41:59.103Z,95906.50
2018-12-14T22:44:27.480Z,95915.13
2018-12-14T22:46:55.905Z,95901.83
2018-12-14T22:49:24.310Z,95906.44
2018-12-14T22:51:52.715Z,95899.02
2018-12-14T22:54:21.137Z,95902.69
2018-12-14T22:56:49.512Z,95905.58
2018-12-14T22:59:17.932Z,95902.21
2018-12-14T23:01:46.386Z,95902.41
2018-12-14T23:04:21.578Z,95907.81
2018-12-14T23:06:49.964Z,95902.13
2018-12-14T23:09:18.384Z,95896.37
2018-12-14T23:11:46.781Z,95901.03
2018-12-14T23:14:15.166Z,95898.13
2018-12-14T23:16:43.590Z,95907.86
2018-12-14T23:19:11.962Z,95902.20
2018-12-14T23:21:40.408Z,95907.08
2018-12-14T23:24:08.785Z,95902.70
2018-12-14T23:26:37.216Z,95899.22
2018-12-14T23:29:05.620Z,95907.42
2018-12-14T23:31:34.013Z,95902.63
2018-12-14T23:34:02.413Z,95899.61
2018-12-14T23:36:30.781Z,95903.59
2018-12-14T23:38:59.185Z,95901.25
2018-12-14T23:41:27.597Z,95899.90
2018-12-14T23:43:56.006Z,95900.27
2018-12-14T23:46:24.400Z,95905.92
2018-12-14T23:48:52.796Z,95904.81
2018-12-14T23:51:21.196Z,95904.81
2018-12-14T23:53:49.608Z,95909.86
2018-12-14T23:56:18.123Z,95916.39
2018-12-14T23:58:46.525Z,95914.63
